El Paso (ELP/KELP)

Map

Information

Location
El Paso, TX
Local Time
18:22 / 6:22 pm
GMT Time
00:22 / 12:22 am
Gates
Unassigned
No FAA reported delays
METAR KELP 222351Z 25013KT 10SM FEW190 32/M16 A2989 RMK AO2 PK WND 24026/2300 SLP054 T03171161 10339 20272 56025
TAF KELP 222320Z 2300/2324 27010KT P6SM FEW150 SCT250 FM230800 18006KT P6SM FEW200 FM231500 23013G20KT P6SM SCT060 FM231700 23025G35KT P6SM SCT060 BKN120 BKN200 FM232300 28030G40KT 4SM BLDU SCT060 BKN120 BKN180
  • No charts available